Airport Name : Ingeniero Alberto Acuna Ongay Intl

Other Name : Campeche

ICAO : MMCP

IATA : CPE

FAA :

Latitude : 19.816794

Longitude : -90.500314

Country : Mexico

Local Date and Time : 1/21/2018 12:36:00 PM

 

TAF (Terminal Aerodrome Forecast)

 

METAR (METeorological Aerodrome Report)

MMCP 211742Z 10015KT 7SM SCT025 29/22 A2994 RMK SLP139 57014 990 8/100

MMCP 211641Z 09012KT 7SM SCT025 27/22 A2997 RMK 8/100

MMCP 211545Z 09015KT 7SM FEW020 FEW120 26/22 A2998 RMK 8/130

MMCP 211441Z 09010KT 7SM FEW120 24/21 A2998 RMK SLP153 52003 987 8/030